Terminal Aerodrome Forecast
Issued by NWS

Home | Current Version | Previous Version | Text Only | Print | Product List | Glossary On
Versions: 1 2 3 4 5 6 7 8 9 10 11 12 13 14 15 16 17 18
000
FTUS44 KTSA 191726
TAFMLC
TAF
KMLC 191726Z 1918/2018 18007KT P6SM VCSH BKN015 BKN025
      TEMPO 1918/1922 BKN025
     FM192200 18013G22KT P6SM OVC025
      TEMPO 2002/2006 3SM TSRA OVC012CB
     FM200600 18013G22KT 5SM RA OVC010
      TEMPO 2006/2010 2SM TSRA OVC012CB
     FM201500 20014G22KT 5SM TSRA OVC015CB=

USA.gov is the U.S. government's official web portal to all federal, state and local government web resources and services.